Aviation Digital Data Service (ADDS)

Output produced by METARs form (0025 UTC 17 July 2019)
found at http://www.aviationweather.gov/metar/data/
 
FQBR 170000Z 00000KT CAVOK 16/15 Q1024
TAF AMD FQBR 162224Z 1700/1806 VRB02KT 9999 FEW020 TX26/1713Z TN15/1703Z 
     PROB30 
     TEMPO 1700/1705 5000 // NSC 
     BECMG 1706/1708 27007KT 
     BECMG 1712/1714 15010KT 
     BECMG 1718/1720 07013KT
       
FQCH 162300Z /////KT CAVOK 13/12 Q1028
TAF AMD FQCH 162224Z 1700/1800 VRB02KT 9999 FEW015 TX24/1713Z TN12/1703Z 
     PROB30 
     TEMPO 1700/1705 0900 FG 
     BECMG 1706/1708 26007KT 
     BECMG 1713/1715 12011KT 
     BECMG 1718/1720 06008KT
       
FQIN 161900Z 00000KT 4000 BR 17/15 Q1026
TAF AMD FQIN 162224Z 1700/1800 04007KT 9999 FEW025 TX28/1713Z TN17/1703Z 
     PROB30 
     TEMPO 1700/1705 5000 BR 
     BECMG 1706/1708 08008KT 
     BECMG 1706/1708 34008KT 
     BECMG 1713/1715 08008KT
       
TAF AMD FQLC 162224Z 1700/1800 12008KT 9999 FEW020 TX22/1713Z TN11/1703Z 
     PROB30 
     TEMPO 1700/1705 3000 BR 
     BECMG 1706/1708 06008KT 
     BECMG 1712/1714 14012KT 
     BECMG 1718/1720 VRB02KT
       
FQMA 170000Z 29004KT CAVOK 16/14 Q1025 NOSIG
TAF AMD FQMA 162224Z 1700/1806 VRB02KT CAVOK TX31/1713Z TN15/1703Z 
     PROB30 
     TEMPO 1700/1705 5000 BR 
     BECMG 1706/1708 34008KT 
     BECMG 1712/1714 06012KT
       
TAF AMD FQNC 162224Z 1700/1800 22008KT 9999 BKN020 TX26/1713Z TN18/1703Z 
     BECMG 1706/1708 14012KT 
     PROB30 
     TEMPO 1712/1718 5000 -RADZ SCT012 BKN015 
     BECMG 1714/1716 09010KT 
     BECMG 1720/1722 VRB02KT
       
FQNP 170000Z 24004KT 9999 FEW020 18/17 Q1025
TAF AMD FQNP 162224Z 1700/1806 VRB03KT 9999 BKN020 TX26/1713Z TN16/1703Z 
     BECMG 1706/1708 13012KT 
     PROB30 
     TEMPO 1712/1718 5000 -RADZ SCT012 BKN015 
     BECMG 1718/1720 17008KT
       
FQPB 162300Z 23007KT 9999 FEW020 20/19 Q1022
TAF AMD FQPB 162224Z 1700/1800 22008KT 9999 BKN020 TX27/1713Z TN18/1703Z 
     BECMG 1706/1708 14012KT 
     BECMG 1714/1716 09010KT 
     BECMG 1720/1722 VRB02KT
       
FQQL 170000Z 18002KT CAVOK 18/16 Q1024
TAF AMD FQQL 162224Z 1700/1800 VRB02KT 9999 FEW020 TX27/1713Z TN15/1703Z 
     BECMG 1707/1709 17007KT
       
FQTT 170000Z 15003KT CAVOK 16/12 Q1025
TAF AMD FQTT 162224Z 1700/1800 11010KT 9999 FEW020 TX28/1713Z TN16/1703Z 
     PROB30 
     TEMPO 1700/1705 3000 BR 
     BECMG 1706/1708 10013KT 
     BECMG 1712/1714 16012KT 
     BECMG 1718/1720 VRB02KT
       
TAF AMD FQVL 162224Z 1700/1800 VRB02KT 9999 FEW020 TX25/1713Z TN15/1703Z 
     PROB30 
     TEMPO 1700/1705 5000 BR 
     BECMG 1713/1715 08008KT